createdAt,value
2023-04-14T00:00:50.721Z,432.00
2023-04-14T00:01:50.799Z,430.00
2023-04-14T00:02:50.863Z,430.00
2023-04-14T00:03:50.912Z,430.00
2023-04-14T00:04:50.924Z,429.00
2023-04-14T00:05:50.920Z,430.00
2023-04-14T00:06:50.949Z,430.00
2023-04-14T00:07:50.986Z,434.00
2023-04-14T00:08:51.054Z,434.00
2023-04-14T00:09:51.066Z,436.00
2023-04-14T00:10:51.102Z,435.00
2023-04-14T00:11:51.149Z,436.00
2023-04-14T00:12:51.176Z,437.00
2023-04-14T00:13:51.213Z,437.00
2023-04-14T00:14:51.216Z,436.00
2023-04-14T00:15:51.225Z,437.00
2023-04-14T00:16:51.291Z,436.00
2023-04-14T00:17:51.234Z,435.00
2023-04-14T00:18:51.224Z,432.00
2023-04-14T00:19:51.230Z,434.00
2023-04-14T00:20:51.241Z,434.00
2023-04-14T00:21:51.252Z,434.00
2023-04-14T00:22:51.234Z,433.00
2023-04-14T00:23:51.246Z,432.00
2023-04-14T00:24:51.242Z,432.00
2023-04-14T00:25:51.258Z,432.00
2023-04-14T00:26:51.257Z,431.00
2023-04-14T00:27:51.277Z,432.00
2023-04-14T00:28:51.299Z,432.00
2023-04-14T00:29:51.295Z,433.00
2023-04-14T00:30:51.380Z,435.00
2023-04-14T00:31:51.372Z,435.00
2023-04-14T00:32:51.465Z,435.00
2023-04-14T00:33:51.464Z,433.00
2023-04-14T00:34:51.495Z,432.00
2023-04-14T00:35:51.544Z,433.00
2023-04-14T00:36:51.568Z,432.00
2023-04-14T00:37:51.615Z,432.00
2023-04-14T00:38:51.659Z,431.00
2023-04-14T00:39:51.682Z,429.00
2023-04-14T00:40:51.729Z,428.00
2023-04-14T00:41:51.777Z,429.00
2023-04-14T00:42:51.804Z,432.00
2023-04-14T00:43:51.831Z,430.00
2023-04-14T00:44:51.882Z,428.00
2023-04-14T00:45:51.967Z,426.00
2023-04-14T00:46:51.919Z,427.00
2023-04-14T00:47:51.951Z,427.00
2023-04-14T00:48:51.937Z,427.00
2023-04-14T00:49:51.944Z,430.00
2023-04-14T00:50:51.956Z,431.00
2023-04-14T00:51:51.966Z,429.00
2023-04-14T00:52:51.965Z,430.00
2023-04-14T00:53:51.982Z,429.00
2023-04-14T00:54:51.991Z,429.00
2023-04-14T00:55:52.038Z,428.00
2023-04-14T00:56:52.017Z,428.00
2023-04-14T00:57:52.029Z,430.00
2023-04-14T00:58:52.057Z,428.00
2023-04-14T00:59:52.046Z,427.00
2023-04-14T01:00:52.058Z,427.00
2023-04-14T01:01:52.157Z,428.00
2023-04-14T01:02:52.211Z,431.00
2023-04-14T01:03:52.315Z,428.00
2023-04-14T01:04:54.741Z,429.00
2023-04-14T01:05:52.189Z,429.00
2023-04-14T01:06:52.188Z,428.00
2023-04-14T01:07:52.203Z,428.00
2023-04-14T01:08:52.197Z,429.00
2023-04-14T01:09:52.253Z,427.00
2023-04-14T01:10:52.239Z,425.00
2023-04-14T01:11:52.235Z,427.00
2023-04-14T01:12:52.237Z,427.00
2023-04-14T01:13:52.248Z,427.00
2023-04-14T01:14:52.256Z,427.00
2023-04-14T01:15:52.353Z,426.00
2023-04-14T01:16:52.291Z,425.00
2023-04-14T01:17:52.324Z,424.00
2023-04-14T01:18:52.300Z,421.00
2023-04-14T01:19:52.314Z,420.00
2023-04-14T01:20:52.337Z,422.00
2023-04-14T01:21:52.332Z,420.00
2023-04-14T01:22:52.357Z,421.00
2023-04-14T01:23:52.374Z,420.00
2023-04-14T01:24:52.370Z,422.00
2023-04-14T01:25:52.370Z,420.00
2023-04-14T01:26:52.407Z,418.00
2023-04-14T01:27:52.405Z,416.00
2023-04-14T01:28:52.414Z,417.00
2023-04-14T01:29:52.445Z,420.00
2023-04-14T01:30:52.452Z,420.00
2023-04-14T01:31:52.665Z,419.00
2023-04-14T01:32:52.516Z,420.00
2023-04-14T01:33:52.476Z,418.00
2023-04-14T01:34:52.479Z,417.00
2023-04-14T01:35:52.490Z,418.00
2023-04-14T01:36:52.728Z,420.00
2023-04-14T01:37:52.514Z,419.00
2023-04-14T01:38:52.503Z,420.00
2023-04-14T01:39:52.527Z,418.00
2023-04-14T01:40:52.513Z,415.00
2023-04-14T01:41:52.518Z,417.00
2023-04-14T01:42:52.523Z,416.00
2023-04-14T01:43:52.534Z,416.00
2023-04-14T01:44:52.546Z,416.00
2023-04-14T01:45:52.638Z,416.00
2023-04-14T01:46:52.582Z,413.00
2023-04-14T01:47:52.633Z,414.00
2023-04-14T01:48:52.638Z,414.00
2023-04-14T01:49:52.605Z,413.00
2023-04-14T01:50:52.620Z,413.00
2023-04-14T01:51:52.657Z,411.00
2023-04-14T01:52:52.662Z,413.00
2023-04-14T01:53:52.659Z,413.00
2023-04-14T01:54:52.658Z,414.00
2023-04-14T01:55:52.690Z,415.00
2023-04-14T01:56:52.733Z,414.00
2023-04-14T01:57:52.707Z,414.00
2023-04-14T01:58:52.697Z,415.00
2023-04-14T01:59:52.735Z,416.00
2023-04-14T02:00:52.831Z,415.00
2023-04-14T02:01:52.784Z,414.00
2023-04-14T02:02:52.829Z,412.00
2023-04-14T02:03:52.904Z,414.00
2023-04-14T02:04:52.774Z,419.00
2023-04-14T02:05:52.844Z,421.00
2023-04-14T02:06:52.797Z,420.00
2023-04-14T02:07:52.793Z,419.00
2023-04-14T02:08:52.818Z,417.00
2023-04-14T02:09:52.820Z,416.00
2023-04-14T02:10:52.812Z,414.00
2023-04-14T02:11:52.822Z,414.00
2023-04-14T02:12:52.841Z,413.00
2023-04-14T02:13:52.850Z,414.00
2023-04-14T02:14:52.857Z,413.00
2023-04-14T02:15:52.915Z,411.00
2023-04-14T02:16:52.974Z,413.00
2023-04-14T02:17:53.080Z,412.00
2023-04-14T02:18:53.013Z,414.00
2023-04-14T02:19:53.051Z,414.00
2023-04-14T02:20:53.103Z,417.00
2023-04-14T02:21:53.137Z,416.00
2023-04-14T02:22:53.180Z,416.00
2023-04-14T02:23:53.222Z,418.00
2023-04-14T02:24:53.287Z,418.00
2023-04-14T02:25:53.321Z,417.00
2023-04-14T02:26:53.372Z,417.00
2023-04-14T02:27:53.416Z,415.00
2023-04-14T02:28:53.456Z,414.00
2023-04-14T02:29:53.508Z,418.00
2023-04-14T02:30:53.601Z,421.00
2023-04-14T02:31:53.633Z,420.00
2023-04-14T02:32:53.663Z,418.00
2023-04-14T02:33:53.680Z,418.00
2023-04-14T02:34:53.721Z,418.00
2023-04-14T02:35:53.758Z,419.00
2023-04-14T02:36:53.806Z,419.00
2023-04-14T02:37:53.839Z,417.00
2023-04-14T02:38:53.881Z,416.00
2023-04-14T02:39:53.928Z,418.00
2023-04-14T02:40:53.980Z,418.00
2023-04-14T02:41:54.027Z,419.00
2023-04-14T02:42:54.068Z,419.00
2023-04-14T02:43:54.132Z,418.00
2023-04-14T02:44:54.164Z,420.00
2023-04-14T02:45:54.214Z,418.00
2023-04-14T02:46:54.273Z,418.00
2023-04-14T02:47:54.361Z,417.00
2023-04-14T02:48:54.355Z,417.00
2023-04-14T02:49:54.411Z,416.00
2023-04-14T02:50:54.450Z,414.00
2023-04-14T02:51:54.497Z,414.00
2023-04-14T02:52:54.547Z,416.00
2023-04-14T02:53:54.609Z,417.00
2023-04-14T02:54:54.598Z,414.00
2023-04-14T02:55:54.603Z,414.00
2023-04-14T02:56:54.604Z,414.00
2023-04-14T02:57:54.606Z,413.00
2023-04-14T02:58:54.602Z,413.00
2023-04-14T02:59:54.613Z,411.00
2023-04-14T03:00:54.605Z,408.00
2023-04-14T03:01:54.703Z,407.00
2023-04-14T03:02:54.722Z,408.00
2023-04-14T03:03:54.632Z,407.00
2023-04-14T03:04:54.617Z,407.00
2023-04-14T03:05:54.635Z,409.00
2023-04-14T03:06:54.683Z,411.00
2023-04-14T03:07:54.727Z,412.00
2023-04-14T03:08:54.786Z,413.00
2023-04-14T03:09:54.829Z,412.00
2023-04-14T03:10:54.883Z,409.00
2023-04-14T03:11:54.944Z,409.00
2023-04-14T03:12:55.001Z,407.00
2023-04-14T03:13:55.037Z,407.00
2023-04-14T03:14:55.119Z,408.00
2023-04-14T03:15:55.153Z,410.00
2023-04-14T03:16:55.208Z,409.00
2023-04-14T03:17:55.285Z,406.00
2023-04-14T03:18:55.300Z,407.00
2023-04-14T03:19:55.351Z,408.00
2023-04-14T03:20:55.399Z,409.00
2023-04-14T03:21:55.458Z,410.00
2023-04-14T03:22:55.492Z,410.00
2023-04-14T03:23:55.544Z,410.00
2023-04-14T03:24:55.606Z,410.00
2023-04-14T03:25:55.669Z,407.00
2023-04-14T03:26:55.708Z,409.00
2023-04-14T03:27:55.785Z,409.00
2023-04-14T03:28:55.846Z,410.00
2023-04-14T03:29:55.874Z,412.00
2023-04-14T03:30:55.962Z,411.00
2023-04-14T03:31:55.983Z,413.00
2023-04-14T03:32:56.097Z,411.00
2023-04-14T03:33:56.079Z,410.00
2023-04-14T03:34:56.138Z,411.00
2023-04-14T03:35:56.194Z,408.00
2023-04-14T03:36:56.239Z,405.00
2023-04-14T03:37:56.297Z,404.00
2023-04-14T03:38:56.342Z,404.00
2023-04-14T03:39:56.404Z,406.00
2023-04-14T03:40:56.441Z,407.00
2023-04-14T03:41:56.497Z,406.00
2023-04-14T03:42:56.556Z,406.00
2023-04-14T03:43:56.618Z,406.00
2023-04-14T03:44:56.664Z,408.00
2023-04-14T03:45:56.733Z,407.00
2023-04-14T03:46:56.785Z,409.00
2023-04-14T03:47:56.844Z,410.00
2023-04-14T03:48:56.896Z,409.00
2023-04-14T03:49:56.932Z,408.00
2023-04-14T03:50:56.958Z,407.00
2023-04-14T03:51:57.004Z,408.00
2023-04-14T03:52:57.075Z,407.00
2023-04-14T03:53:58.123Z,409.00
2023-04-14T03:54:57.177Z,410.00
2023-04-14T03:55:57.213Z,410.00
2023-04-14T03:56:57.267Z,408.00
2023-04-14T03:57:57.329Z,404.00
2023-04-14T03:58:57.390Z,406.00
2023-04-14T03:59:57.366Z,407.00
2023-04-14T04:00:57.391Z,408.00
2023-04-14T04:01:57.394Z,408.00
2023-04-14T04:02:57.645Z,408.00
2023-04-14T04:03:57.431Z,409.00
2023-04-14T04:04:57.432Z,408.00
2023-04-14T04:05:57.380Z,408.00
2023-04-14T04:06:57.407Z,409.00
2023-04-14T04:07:57.404Z,409.00
2023-04-14T04:08:57.403Z,409.00
2023-04-14T04:09:57.418Z,408.00
2023-04-14T04:10:57.464Z,406.00
2023-04-14T04:11:57.481Z,407.00
2023-04-14T04:12:57.526Z,404.00
2023-04-14T04:13:57.593Z,403.00
2023-04-14T04:14:57.640Z,403.00
2023-04-14T04:15:57.679Z,400.00
2023-04-14T04:16:57.743Z,400.00
2023-04-14T04:17:57.844Z,400.00
2023-04-14T04:18:58.013Z,401.00
2023-04-14T04:19:57.879Z,400.00
2023-04-14T04:20:57.932Z,401.00
2023-04-14T04:21:57.980Z,403.00
2023-04-14T04:22:58.025Z,404.00
2023-04-14T04:23:58.076Z,405.00
2023-04-14T04:24:58.113Z,405.00
2023-04-14T04:25:58.157Z,404.00
2023-04-14T04:26:58.222Z,405.00
2023-04-14T04:27:58.288Z,407.00
2023-04-14T04:28:58.494Z,407.00
2023-04-14T04:29:58.357Z,407.00
2023-04-14T04:30:58.404Z,406.00
2023-04-14T04:31:58.498Z,405.00
2023-04-14T04:32:58.553Z,408.00
2023-04-14T04:33:58.547Z,407.00
2023-04-14T04:34:58.583Z,408.00
2023-04-14T04:35:58.636Z,408.00
2023-04-14T04:36:58.669Z,407.00
2023-04-14T04:37:58.735Z,406.00
2023-04-14T04:38:58.984Z,405.00
2023-04-14T04:39:58.804Z,407.00
2023-04-14T04:40:58.857Z,406.00
2023-04-14T04:41:58.897Z,405.00
2023-04-14T04:42:58.950Z,408.00
2023-04-14T04:43:59.031Z,407.00
2023-04-14T04:44:59.047Z,405.00
2023-04-14T04:45:59.164Z,402.00
2023-04-14T04:46:59.228Z,399.00
2023-04-14T04:47:59.283Z,400.00
2023-04-14T04:48:59.447Z,400.00
2023-04-14T04:49:59.319Z,400.00
2023-04-14T04:50:59.384Z,400.00
2023-04-14T04:51:59.429Z,402.00
2023-04-14T04:52:59.489Z,403.00
2023-04-14T04:53:59.548Z,403.00
2023-04-14T04:54:59.595Z,404.00
2023-04-14T04:55:59.651Z,407.00
2023-04-14T04:56:59.715Z,408.00
2023-04-14T04:57:59.763Z,408.00
2023-04-14T04:59:00.314Z,407.00
2023-04-14T04:59:59.871Z,408.00
2023-04-14T05:00:59.952Z,410.00
2023-04-14T05:02:00.031Z,409.00
2023-04-14T05:03:00.146Z,410.00
2023-04-14T05:04:00.138Z,410.00
2023-04-14T05:05:00.176Z,408.00
2023-04-14T05:06:00.179Z,405.00
2023-04-14T05:07:00.194Z,407.00
2023-04-14T05:08:00.157Z,407.00
2023-04-14T05:09:00.434Z,407.00
2023-04-14T05:10:00.199Z,407.00
2023-04-14T05:11:00.151Z,407.00
2023-04-14T05:12:00.177Z,405.00
2023-04-14T05:13:00.179Z,404.00
2023-04-14T05:14:00.158Z,407.00
2023-04-14T05:15:00.156Z,404.00
2023-04-14T05:16:00.215Z,403.00
2023-04-14T05:17:00.171Z,402.00
2023-04-14T05:18:00.318Z,403.00
2023-04-14T05:19:00.511Z,405.00
2023-04-14T05:20:00.217Z,405.00
2023-04-14T05:21:00.188Z,406.00
2023-04-14T05:22:00.155Z,405.00
2023-04-14T05:23:00.184Z,405.00
2023-04-14T05:24:00.174Z,406.00
2023-04-14T05:25:00.181Z,407.00
2023-04-14T05:26:16.394Z,409.00
2023-04-14T05:28:00.188Z,412.00
2023-04-14T05:29:00.544Z,411.00
2023-04-14T05:30:00.438Z,411.00
2023-04-14T05:31:01.438Z,408.00
2023-04-14T05:32:00.379Z,408.00
2023-04-14T05:33:00.499Z,407.00
2023-04-14T05:34:00.768Z,410.00
2023-04-14T05:35:00.506Z,415.00
2023-04-14T05:36:00.558Z,422.00
2023-04-14T05:37:00.571Z,426.00
2023-04-14T05:38:00.594Z,436.00
2023-04-14T05:39:00.544Z,453.00
2023-04-14T05:40:00.586Z,470.00
2023-04-14T05:41:00.552Z,483.00
2023-04-14T05:42:00.571Z,550.00
2023-04-14T05:43:00.572Z,584.00
2023-04-14T05:44:00.798Z,583.00
2023-04-14T05:45:00.597Z,588.00
2023-04-14T05:46:00.580Z,648.00
2023-04-14T05:47:00.659Z,661.00
2023-04-14T05:48:00.673Z,721.00
2023-04-14T05:49:00.885Z,743.00
2023-04-14T05:50:00.615Z,756.00
2023-04-14T05:51:00.613Z,809.00
2023-04-14T05:52:00.612Z,834.00
2023-04-14T05:53:00.605Z,849.00
2023-04-14T05:54:01.070Z,876.00
2023-04-14T05:55:00.601Z,915.00
2023-04-14T05:56:00.624Z,920.00
2023-04-14T05:57:00.577Z,929.00
2023-04-14T05:58:00.610Z,942.00
2023-04-14T05:59:00.617Z,1007.00
2023-04-14T06:00:00.632Z,1014.00
2023-04-14T06:01:00.583Z,1023.00
2023-04-14T06:02:00.665Z,1025.00
2023-04-14T06:03:00.813Z,1046.00
2023-04-14T06:04:01.206Z,1064.00
2023-04-14T06:05:00.654Z,1087.00
2023-04-14T06:06:01.611Z,1122.00
2023-04-14T06:07:00.571Z,1145.00
2023-04-14T06:08:00.579Z,1156.00
2023-04-14T06:09:00.713Z,1162.00
2023-04-14T06:10:00.537Z,1176.00
2023-04-14T06:11:00.532Z,1246.00
2023-04-14T06:12:00.557Z,1248.00
2023-04-14T06:13:00.547Z,1248.00
2023-04-14T06:14:00.800Z,1253.00
2023-04-14T06:15:00.627Z,1264.00
2023-04-14T06:16:00.664Z,1313.00
2023-04-14T06:17:00.864Z,1334.00
2023-04-14T06:18:00.808Z,1346.00
2023-04-14T06:19:01.295Z,1355.00
2023-04-14T06:20:00.895Z,1373.00
2023-04-14T06:21:00.944Z,1395.00
2023-04-14T06:22:00.945Z,1403.00
2023-04-14T06:23:00.928Z,1416.00
2023-04-14T06:24:00.926Z,1421.00
2023-04-14T06:25:00.897Z,1427.00
2023-04-14T06:26:00.920Z,1438.00
2023-04-14T06:27:00.883Z,1454.00
2023-04-14T06:28:00.889Z,1464.00
2023-04-14T06:29:01.317Z,1472.00
2023-04-14T06:30:00.878Z,1488.00
2023-04-14T06:31:00.921Z,1507.00
2023-04-14T06:32:01.031Z,1521.00
2023-04-14T06:33:01.070Z,1526.00
2023-04-14T06:34:01.104Z,1538.00
2023-04-14T06:35:01.132Z,1577.00
2023-04-14T06:36:01.182Z,1586.00
2023-04-14T06:37:01.356Z,1585.00
2023-04-14T06:38:01.292Z,1605.00
2023-04-14T06:39:01.653Z,1614.00
2023-04-14T06:40:01.357Z,1631.00
2023-04-14T06:41:01.500Z,1640.00
2023-04-14T06:42:01.476Z,1648.00
2023-04-14T06:43:01.526Z,1660.00
2023-04-14T06:44:01.725Z,1749.00
2023-04-14T06:45:01.599Z,1737.00
2023-04-14T06:46:01.740Z,1675.00
2023-04-14T06:47:01.832Z,1652.00
2023-04-14T06:48:01.906Z,1592.00
2023-04-14T06:49:01.985Z,1521.00
2023-04-14T06:50:01.930Z,1445.00
2023-04-14T06:51:01.908Z,1391.00
2023-04-14T06:52:02.030Z,1375.00
2023-04-14T06:53:02.053Z,1358.00
2023-04-14T06:54:02.368Z,1247.00
2023-04-14T06:55:02.212Z,1123.00
2023-04-14T06:56:02.310Z,1106.00
2023-04-14T06:57:02.314Z,1070.00
2023-04-14T06:58:02.373Z,1078.00
2023-04-14T06:59:02.506Z,1083.00
2023-04-14T07:00:02.459Z,1078.00
2023-04-14T07:01:02.612Z,1050.00
2023-04-14T07:02:02.676Z,1048.00
2023-04-14T07:03:02.756Z,1043.00
2023-04-14T07:04:04.475Z,1046.00
2023-04-14T07:05:02.528Z,1043.00
2023-04-14T07:06:02.474Z,1025.00
2023-04-14T07:07:02.491Z,1015.00
2023-04-14T07:08:02.483Z,1008.00
2023-04-14T07:09:02.480Z,1006.00
2023-04-14T07:10:02.568Z,1005.00
2023-04-14T07:11:02.484Z,995.00
2023-04-14T07:12:02.491Z,976.00
2023-04-14T07:13:02.492Z,970.00
2023-04-14T07:14:02.738Z,970.00
2023-04-14T07:15:02.461Z,965.00
2023-04-14T07:16:02.482Z,958.00
2023-04-14T07:17:02.477Z,948.00
2023-04-14T07:18:02.460Z,914.00
2023-04-14T07:19:02.471Z,914.00
2023-04-14T07:20:02.473Z,912.00
2023-04-14T07:21:02.455Z,908.00
2023-04-14T07:22:02.491Z,898.00
2023-04-14T07:23:02.465Z,891.00
2023-04-14T07:24:02.746Z,884.00
2023-04-14T07:25:02.450Z,877.00
2023-04-14T07:26:02.450Z,870.00
2023-04-14T07:27:02.447Z,861.00
2023-04-14T07:28:03.456Z,820.00
2023-04-14T07:29:02.474Z,829.00
2023-04-14T07:30:02.521Z,828.00
2023-04-14T07:31:02.478Z,819.00
2023-04-14T07:32:02.557Z,800.00
2023-04-14T07:33:02.625Z,795.00
2023-04-14T07:34:02.721Z,795.00
2023-04-14T07:35:02.495Z,792.00
2023-04-14T07:36:03.850Z,788.00
2023-04-14T07:37:02.502Z,775.00
2023-04-14T07:38:02.470Z,769.00
2023-04-14T07:39:02.482Z,1081.00
2023-04-14T07:40:02.488Z,908.00
2023-04-14T07:41:02.487Z,848.00
2023-04-14T07:42:02.480Z,858.00
2023-04-14T07:43:02.483Z,767.00
2023-04-14T07:44:02.885Z,793.00
2023-04-14T07:45:03.014Z,760.00
2023-04-14T07:46:02.546Z,690.00
2023-04-14T07:47:02.585Z,671.00
2023-04-14T07:48:02.551Z,683.00
2023-04-14T07:49:02.533Z,631.00
2023-04-14T07:50:02.558Z,627.00
2023-04-14T07:51:02.664Z,618.00
2023-04-14T07:52:02.641Z,611.00
2023-04-14T07:53:02.881Z,687.00
2023-04-14T07:54:02.871Z,747.00
2023-04-14T07:55:02.622Z,768.00
2023-04-14T07:56:02.626Z,778.00
2023-04-14T07:57:02.628Z,783.00
2023-04-14T07:58:02.639Z,790.00
2023-04-14T07:59:02.946Z,808.00
2023-04-14T08:00:02.645Z,905.00
2023-04-14T08:01:02.651Z,905.00
2023-04-14T08:02:02.726Z,904.00
2023-04-14T08:03:02.784Z,906.00
2023-04-14T08:04:02.881Z,918.00
2023-04-14T08:05:02.719Z,970.00
2023-04-14T08:06:02.739Z,975.00
2023-04-14T08:07:02.688Z,983.00
2023-04-14T08:08:02.689Z,999.00
2023-04-14T08:09:03.007Z,1005.00
2023-04-14T08:10:02.724Z,1013.00
2023-04-14T08:11:02.697Z,1030.00
2023-04-14T08:12:02.714Z,1059.00
2023-04-14T08:13:03.833Z,1082.00
2023-04-14T08:14:02.747Z,1094.00
2023-04-14T08:15:02.870Z,1103.00
2023-04-14T08:16:02.916Z,1161.00
2023-04-14T08:17:02.909Z,1190.00
2023-04-14T08:18:02.968Z,1253.00
2023-04-14T08:19:03.460Z,1260.00
2023-04-14T08:20:03.029Z,1372.00
2023-04-14T08:21:03.063Z,1369.00
2023-04-14T08:22:02.933Z,1306.00
2023-04-14T08:23:02.927Z,1311.00
2023-04-14T08:24:02.956Z,1318.00
2023-04-14T08:25:02.933Z,1324.00
2023-04-14T08:26:02.924Z,1318.00
2023-04-14T08:27:02.940Z,1326.00
2023-04-14T08:28:02.938Z,1339.00
2023-04-14T08:29:03.289Z,1350.00
2023-04-14T08:30:02.909Z,1361.00
2023-04-14T08:31:02.887Z,1379.00
2023-04-14T08:32:02.976Z,1383.00
2023-04-14T08:33:02.901Z,1878.00
2023-04-14T08:34:02.881Z,1399.00
2023-04-14T08:35:38.110Z,1037.00
2023-04-14T08:36:03.872Z,883.00
2023-04-14T08:37:02.882Z,775.00
2023-04-14T08:38:02.872Z,674.00
2023-04-14T08:39:03.083Z,643.00
2023-04-14T08:40:02.947Z,607.00
2023-04-14T08:41:02.859Z,588.00
2023-04-14T08:42:02.853Z,549.00
2023-04-14T08:43:02.865Z,525.00
2023-04-14T08:44:02.911Z,507.00
2023-04-14T08:45:02.962Z,486.00
2023-04-14T08:46:02.924Z,483.00
2023-04-14T08:47:02.930Z,490.00
2023-04-14T08:48:03.136Z,689.00
2023-04-14T08:49:03.276Z,682.00
2023-04-14T08:50:02.985Z,716.00
2023-04-14T08:51:02.997Z,798.00
2023-04-14T08:52:03.009Z,830.00
2023-04-14T08:53:03.102Z,836.00
2023-04-14T08:54:03.173Z,843.00
2023-04-14T08:55:03.084Z,853.00
2023-04-14T08:56:03.006Z,863.00
2023-04-14T08:57:03.005Z,881.00
2023-04-14T08:58:03.031Z,902.00
2023-04-14T08:59:03.044Z,917.00
2023-04-14T09:00:02.998Z,934.00
2023-04-14T09:01:03.092Z,964.00
2023-04-14T09:02:03.099Z,990.00
2023-04-14T09:03:03.277Z,1005.00
2023-04-14T09:04:03.583Z,1046.00
2023-04-14T09:05:03.258Z,1059.00
2023-04-14T09:06:03.028Z,1095.00
2023-04-14T09:07:03.067Z,1113.00
2023-04-14T09:08:03.139Z,1130.00
2023-04-14T09:09:03.235Z,1148.00
2023-04-14T09:10:03.247Z,1167.00
2023-04-14T09:11:03.429Z,1194.00
2023-04-14T09:12:03.345Z,1215.00
2023-04-14T09:13:03.386Z,1226.00
2023-04-14T09:14:03.661Z,1260.00
2023-04-14T09:15:03.495Z,1285.00
2023-04-14T09:16:03.520Z,1295.00
2023-04-14T09:17:03.602Z,1322.00
2023-04-14T09:18:03.663Z,1359.00
2023-04-14T09:19:06.930Z,1374.00
2023-04-14T09:20:35.296Z,1384.00
2023-04-14T09:21:31.774Z,1400.00
2023-04-14T09:22:04.556Z,1431.00
2023-04-14T09:23:03.565Z,1442.00
2023-04-14T09:24:03.576Z,1458.00
2023-04-14T09:25:03.541Z,1477.00
2023-04-14T09:26:03.537Z,1492.00
2023-04-14T09:27:03.742Z,1503.00
2023-04-14T09:28:03.648Z,1388.00
2023-04-14T09:29:04.018Z,1412.00
2023-04-14T09:30:03.517Z,1394.00
2023-04-14T09:31:03.546Z,1517.00
2023-04-14T09:32:03.468Z,1505.00
2023-04-14T09:33:03.703Z,1493.00
2023-04-14T09:34:03.719Z,1487.00
2023-04-14T09:35:03.396Z,1412.00
2023-04-14T09:36:03.464Z,1403.00
2023-04-14T09:37:03.395Z,1412.00
2023-04-14T09:38:03.428Z,1421.00
2023-04-14T09:39:03.478Z,1411.00
2023-04-14T09:40:03.559Z,1320.00
2023-04-14T09:41:03.437Z,1312.00
2023-04-14T09:42:03.569Z,1271.00
2023-04-14T09:43:03.335Z,1286.00
2023-04-14T09:44:03.605Z,1293.00
2023-04-14T09:45:03.455Z,1319.00
2023-04-14T09:46:03.428Z,1337.00
2023-04-14T09:47:03.409Z,1348.00
2023-04-14T09:48:03.477Z,1392.00
2023-04-14T09:49:03.546Z,1385.00
2023-04-14T09:50:03.599Z,1415.00
2023-04-14T09:51:03.602Z,1447.00
2023-04-14T09:52:03.562Z,1460.00
2023-04-14T09:53:03.603Z,1468.00
2023-04-14T09:54:03.832Z,1484.00
2023-04-14T09:55:03.627Z,1508.00
2023-04-14T09:56:03.721Z,1518.00
2023-04-14T09:57:03.673Z,1535.00
2023-04-14T09:58:03.657Z,1555.00
2023-04-14T09:59:04.089Z,1564.00
2023-04-14T10:00:03.722Z,1569.00
2023-04-14T10:01:03.951Z,1577.00
2023-04-14T10:02:03.783Z,1581.00
2023-04-14T10:03:03.792Z,1581.00
2023-04-14T10:04:03.775Z,1590.00
2023-04-14T10:05:03.982Z,1606.00
2023-04-14T10:06:03.810Z,1614.00
2023-04-14T10:07:03.818Z,1623.00
2023-04-14T10:08:03.855Z,1632.00
2023-04-14T10:09:04.381Z,1642.00
2023-04-14T10:10:03.906Z,1651.00
2023-04-14T10:11:04.120Z,1656.00
2023-04-14T10:12:03.897Z,1661.00
2023-04-14T10:13:03.911Z,1671.00
2023-04-14T10:14:04.020Z,1674.00
2023-04-14T10:15:03.910Z,1683.00
2023-04-14T10:16:03.956Z,1690.00
2023-04-14T10:17:03.889Z,1694.00
2023-04-14T10:18:03.930Z,1699.00
2023-04-14T10:19:04.365Z,1704.00
2023-04-14T10:20:03.832Z,1714.00
2023-04-14T10:21:03.837Z,1735.00
2023-04-14T10:22:03.822Z,1724.00
2023-04-14T10:23:03.790Z,1737.00
2023-04-14T10:24:03.773Z,1747.00
2023-04-14T10:25:03.767Z,1755.00
2023-04-14T10:26:03.796Z,1751.00
2023-04-14T10:27:03.738Z,1749.00
2023-04-14T10:28:03.742Z,1755.00
2023-04-14T10:29:03.784Z,1758.00
2023-04-14T10:30:03.685Z,1760.00
2023-04-14T10:31:03.717Z,1776.00
2023-04-14T10:32:03.816Z,1787.00
2023-04-14T10:33:03.663Z,1785.00
2023-04-14T10:34:03.616Z,1788.00
2023-04-14T10:35:03.609Z,1802.00
2023-04-14T10:36:03.620Z,1816.00
2023-04-14T10:37:03.697Z,1828.00
2023-04-14T10:38:03.569Z,1434.00
2023-04-14T10:39:03.791Z,1523.00
2023-04-14T10:40:03.548Z,1534.00
2023-04-14T10:41:03.558Z,1297.00
2023-04-14T10:42:03.628Z,1393.00
2023-04-14T10:43:03.540Z,1393.00
2023-04-14T10:44:03.539Z,1359.00
2023-04-14T10:45:03.540Z,1149.00
2023-04-14T10:46:03.606Z,1183.00
2023-04-14T10:47:03.645Z,1208.00
2023-04-14T10:48:03.554Z,1053.00
2023-04-14T10:49:03.572Z,930.00
2023-04-14T10:50:03.530Z,941.00
2023-04-14T10:51:03.583Z,949.00
2023-04-14T10:52:03.738Z,896.00
2023-04-14T10:53:03.539Z,886.00
2023-04-14T10:54:03.593Z,884.00
2023-04-14T10:55:03.575Z,880.00
2023-04-14T10:56:03.553Z,882.00
2023-04-14T10:57:03.546Z,841.00
2023-04-14T10:58:03.549Z,849.00
2023-04-14T10:59:03.586Z,829.00
2023-04-14T11:00:03.569Z,823.00
2023-04-14T11:01:03.603Z,817.00
2023-04-14T11:02:03.631Z,819.00
2023-04-14T11:03:03.736Z,820.00
2023-04-14T11:04:03.687Z,815.00
2023-04-14T11:05:03.569Z,815.00
2023-04-14T11:06:03.566Z,893.00
2023-04-14T11:07:03.529Z,854.00
2023-04-14T11:08:03.576Z,856.00
2023-04-14T11:09:03.689Z,868.00
2023-04-14T11:10:03.504Z,875.00
2023-04-14T11:11:03.516Z,882.00
2023-04-14T11:12:03.507Z,893.00
2023-04-14T11:13:03.514Z,914.00
2023-04-14T11:14:03.508Z,897.00
2023-04-14T11:15:03.521Z,908.00
2023-04-14T11:16:03.513Z,916.00
2023-04-14T11:17:04.609Z,920.00
2023-04-14T11:18:03.628Z,932.00
2023-04-14T11:19:03.648Z,941.00
2023-04-14T11:20:03.483Z,959.00
2023-04-14T11:21:03.482Z,968.00
2023-04-14T11:22:03.496Z,957.00
2023-04-14T11:23:03.552Z,953.00
2023-04-14T11:24:03.504Z,1001.00
2023-04-14T11:25:03.491Z,995.00
2023-04-14T11:26:03.493Z,1000.00
2023-04-14T11:27:03.526Z,1007.00
2023-04-14T11:28:03.538Z,987.00
2023-04-14T11:29:03.591Z,1011.00
2023-04-14T11:30:03.466Z,1066.00
2023-04-14T11:31:03.517Z,1131.00
2023-04-14T11:32:03.519Z,1107.00
2023-04-14T11:33:03.469Z,1105.00
2023-04-14T11:34:03.434Z,1105.00
2023-04-14T11:35:03.437Z,1099.00
2023-04-14T11:36:03.447Z,1099.00
2023-04-14T11:37:03.416Z,1093.00
2023-04-14T11:38:03.413Z,1071.00
2023-04-14T11:39:03.636Z,1054.00
2023-04-14T11:40:03.513Z,1053.00
2023-04-14T11:41:03.566Z,1051.00
2023-04-14T11:42:03.582Z,1056.00
2023-04-14T11:43:03.668Z,1067.00
2023-04-14T11:44:03.761Z,1069.00
2023-04-14T11:45:03.834Z,1056.00
2023-04-14T11:46:03.818Z,1048.00
2023-04-14T11:47:03.927Z,1035.00
2023-04-14T11:48:03.886Z,1034.00
2023-04-14T11:49:03.837Z,1025.00
2023-04-14T11:50:03.810Z,1018.00
2023-04-14T11:51:04.131Z,1012.00
2023-04-14T11:52:03.820Z,1011.00
2023-04-14T11:53:03.823Z,1008.00
2023-04-14T11:54:03.872Z,1004.00
2023-04-14T11:55:03.815Z,1005.00
2023-04-14T11:56:03.799Z,1007.00
2023-04-14T11:57:03.805Z,1007.00
2023-04-14T11:58:03.839Z,1004.00
2023-04-14T11:59:04.171Z,1000.00
2023-04-14T12:00:03.977Z,996.00
2023-04-14T12:01:03.959Z,992.00
2023-04-14T12:02:04.202Z,991.00
2023-04-14T12:03:04.128Z,990.00
2023-04-14T12:04:04.298Z,988.00
2023-04-14T12:05:04.423Z,990.00
2023-04-14T12:06:04.103Z,991.00
2023-04-14T12:07:04.104Z,990.00
2023-04-14T12:08:03.947Z,989.00
2023-04-14T12:09:04.019Z,990.00
2023-04-14T12:10:03.946Z,986.00
2023-04-14T12:11:04.090Z,978.00
2023-04-14T12:12:03.952Z,979.00
2023-04-14T12:13:03.911Z,981.00
2023-04-14T12:14:03.922Z,974.00
2023-04-14T12:15:03.886Z,973.00
2023-04-14T12:16:03.909Z,972.00
2023-04-14T12:17:03.871Z,970.00
2023-04-14T12:18:03.884Z,972.00
2023-04-14T12:19:04.449Z,970.00
2023-04-14T12:20:03.834Z,967.00
2023-04-14T12:21:03.829Z,966.00
2023-04-14T12:22:03.811Z,962.00
2023-04-14T12:23:03.836Z,957.00